createdAt,value
2018-06-12T00:01:24.798Z,15.70
2018-06-12T00:03:52.617Z,15.20
2018-06-12T00:06:20.642Z,15.60
2018-06-12T00:08:48.691Z,14.07
2018-06-12T00:11:16.720Z,14.83
2018-06-12T00:13:44.760Z,14.43
2018-06-12T00:16:12.775Z,14.63
2018-06-12T00:18:40.807Z,15.33
2018-06-12T00:21:08.834Z,14.37
2018-06-12T00:23:36.665Z,14.50
2018-06-12T00:26:04.695Z,14.00
2018-06-12T00:28:32.723Z,14.67
2018-06-12T00:31:00.812Z,14.70
2018-06-12T00:33:28.848Z,14.50
2018-06-12T00:43:18.982Z,14.43
2018-06-12T00:45:46.797Z,14.53
2018-06-12T00:48:14.848Z,14.30
2018-06-12T00:50:42.874Z,15.17
2018-06-12T00:53:10.932Z,14.87
2018-06-12T00:55:38.971Z,14.43
2018-06-12T01:00:34.154Z,14.63
2018-06-12T01:03:02.195Z,16.23
2018-06-12T01:05:30.228Z,14.77
2018-06-12T01:07:58.243Z,15.03
2018-06-12T01:10:26.262Z,14.53
2018-06-12T01:12:54.291Z,14.37
2018-06-12T01:15:22.350Z,13.47
2018-06-12T01:17:50.386Z,13.63
2018-06-12T01:20:18.403Z,13.23
2018-06-12T01:25:13.788Z,12.90
2018-06-12T01:27:41.822Z,14.17
2018-06-12T01:30:09.863Z,14.60
2018-06-12T01:32:37.886Z,14.50
2018-06-12T01:35:05.934Z,14.23
2018-06-12T01:37:33.974Z,14.13
2018-06-12T01:40:02.019Z,14.10
2018-06-12T01:42:30.046Z,16.07
2018-06-12T01:44:58.091Z,14.93
2018-06-12T01:47:26.119Z,15.95
2018-06-12T01:49:54.179Z,15.53
2018-06-12T01:52:22.203Z,15.90
2018-06-12T01:54:50.246Z,17.37
2018-06-12T01:57:18.269Z,17.73
2018-06-12T01:59:46.318Z,17.70
2018-06-12T02:09:36.057Z,20.50
2018-06-12T02:19:26.210Z,19.80
2018-06-12T02:21:54.246Z,18.03
2018-06-12T02:34:11.526Z,20.30
2018-06-12T02:44:02.099Z,20.17
2018-06-12T02:46:30.128Z,20.93
2018-06-12T02:48:58.155Z,21.03
2018-06-12T02:51:26.183Z,22.00
2018-06-12T02:53:54.214Z,22.37
2018-06-12T02:56:22.289Z,22.57
2018-06-12T02:58:50.274Z,23.30
2018-06-12T03:01:18.311Z,23.70
2018-06-12T03:03:46.342Z,24.60
2018-06-12T03:06:14.370Z,25.67
2018-06-12T03:08:42.411Z,24.60
2018-06-12T03:11:10.221Z,26.93
2018-06-12T03:13:38.255Z,25.20
2018-06-12T03:21:01.191Z,25.13
2018-06-12T03:23:29.220Z,25.30
2018-06-12T03:25:59.430Z,25.33
2018-06-12T03:28:27.468Z,26.40
2018-06-12T03:30:55.506Z,26.30
2018-06-12T03:33:23.542Z,28.37
2018-06-12T03:35:51.566Z,28.27
2018-06-12T03:38:19.599Z,29.77
2018-06-12T03:43:14.982Z,29.37
2018-06-12T03:45:43.027Z,31.77
2018-06-12T03:48:11.060Z,35.40
2018-06-12T03:50:39.123Z,35.07
2018-06-12T03:53:07.163Z,34.57
2018-06-12T03:55:35.186Z,33.20
2018-06-12T03:58:03.710Z,36.23
2018-06-12T04:00:31.738Z,35.70
2018-06-12T04:02:59.775Z,35.00
2018-06-12T04:05:27.798Z,33.20
2018-06-12T04:07:55.841Z,32.63
2018-06-12T04:10:23.866Z,29.97
2018-06-12T04:12:51.907Z,29.60
2018-06-12T04:15:19.940Z,32.37
2018-06-12T04:17:48.011Z,31.63
2018-06-12T04:20:16.036Z,31.20
2018-06-12T04:22:44.063Z,31.10
2018-06-12T04:25:12.107Z,31.83
2018-06-12T04:27:40.134Z,32.13
2018-06-12T04:30:08.170Z,34.07
2018-06-12T04:32:35.981Z,34.97
2018-06-12T04:35:04.068Z,34.23
2018-06-12T04:37:32.040Z,34.43
2018-06-12T04:39:59.871Z,34.67
2018-06-12T04:47:23.450Z,33.10
2018-06-12T04:49:51.503Z,29.87
2018-06-12T04:52:19.532Z,29.87
2018-06-12T04:54:47.579Z,27.17
2018-06-12T04:57:15.614Z,26.90
2018-06-12T04:59:43.659Z,26.37
2018-06-12T05:02:11.699Z,25.70
2018-06-12T05:04:39.739Z,24.60
2018-06-12T05:07:07.771Z,26.30
2018-06-12T05:09:35.807Z,25.20
2018-06-12T05:12:03.847Z,26.43
2018-06-12T05:14:31.874Z,25.97
2018-06-12T05:16:59.907Z,27.70
2018-06-12T05:19:27.996Z,25.63
2018-06-12T05:21:56.036Z,26.70
2018-06-12T05:24:24.070Z,29.03
2018-06-12T05:26:52.111Z,30.03
2018-06-12T05:29:20.146Z,29.47
2018-06-12T05:31:48.170Z,29.77
2018-06-12T05:34:16.192Z,30.97
2018-06-12T05:36:44.219Z,29.17
2018-06-12T05:39:12.258Z,28.20
2018-06-12T05:41:40.527Z,27.80
2018-06-12T05:44:08.579Z,26.93
2018-06-12T05:46:36.607Z,28.17
2018-06-12T05:49:04.959Z,27.10
2018-06-12T05:51:33.002Z,26.70
2018-06-12T05:54:01.074Z,28.60
2018-06-12T05:56:29.098Z,29.53
2018-06-12T05:58:57.149Z,30.13
2018-06-12T06:03:52.551Z,26.97
2018-06-12T06:06:20.579Z,27.53
2018-06-12T06:08:48.615Z,27.73
2018-06-12T06:11:16.672Z,28.13
2018-06-12T06:13:44.739Z,28.63
2018-06-12T06:16:12.770Z,28.73
2018-06-12T06:18:40.799Z,27.10
2018-06-12T06:21:08.838Z,27.53
2018-06-12T06:23:36.871Z,29.33
2018-06-12T06:26:04.927Z,30.83
2018-06-12T06:28:32.963Z,30.80
2018-06-12T06:31:00.991Z,29.33
2018-06-12T06:38:23.561Z,29.33
2018-06-12T06:48:13.704Z,28.55
2018-06-12T06:50:41.755Z,28.30
2018-06-12T06:55:37.163Z,27.80
2018-06-12T07:00:32.639Z,26.67
2018-06-12T07:05:28.031Z,28.23
2018-06-12T07:07:56.071Z,27.17
2018-06-12T07:10:24.107Z,27.50
2018-06-12T07:12:52.136Z,26.97
2018-06-12T07:15:20.170Z,27.13
2018-06-12T07:17:48.235Z,26.73
2018-06-12T07:20:27.926Z,26.75
2018-06-12T07:25:23.364Z,27.80
2018-06-12T07:27:51.398Z,29.10
2018-06-12T07:30:19.419Z,26.20
2018-06-12T07:32:47.455Z,25.83
2018-06-12T07:35:15.478Z,27.20
2018-06-12T07:37:43.543Z,26.97
2018-06-12T07:40:11.561Z,28.47
2018-06-12T07:45:06.743Z,28.53
2018-06-12T07:52:29.523Z,25.53
2018-06-12T07:54:57.572Z,25.13
2018-06-12T08:04:47.866Z,27.53
2018-06-12T08:07:15.902Z,26.87
2018-06-12T08:09:43.941Z,27.77
2018-06-12T08:12:11.986Z,26.67
2018-06-12T08:14:40.028Z,23.70
2018-06-12T08:17:08.046Z,21.87
2018-06-12T08:19:36.071Z,21.10
2018-06-12T08:22:04.090Z,20.00
2018-06-12T08:24:32.123Z,21.97
2018-06-12T08:27:00.138Z,22.43
2018-06-12T08:29:28.162Z,22.40
2018-06-12T08:36:50.930Z,20.20
2018-06-12T08:39:18.980Z,19.40
2018-06-12T08:41:47.014Z,17.60
2018-06-12T08:44:14.842Z,18.43
2018-06-12T08:46:42.871Z,16.47
2018-06-12T08:49:10.950Z,16.80
2018-06-12T08:51:38.939Z,16.37
2018-06-12T08:54:06.969Z,15.60
2018-06-12T08:56:35.008Z,15.33
2018-06-12T08:59:03.055Z,15.30
2018-06-12T09:01:31.106Z,15.37
2018-06-12T09:03:59.118Z,14.63
2018-06-12T09:06:27.147Z,13.70
2018-06-12T09:08:55.183Z,13.70
2018-06-12T09:11:23.222Z,13.30
2018-06-12T09:13:51.266Z,11.87
2018-06-12T09:16:19.294Z,11.90
2018-06-12T09:18:47.314Z,12.13
2018-06-12T09:21:15.352Z,12.27
2018-06-12T09:23:43.370Z,12.00
2018-06-12T09:26:11.398Z,11.73
2018-06-12T09:28:39.426Z,10.83
2018-06-12T09:31:07.450Z,10.27
2018-06-12T09:33:35.493Z,9.50
2018-06-12T09:36:08.898Z,8.53
2018-06-12T09:38:36.726Z,9.10
2018-06-12T09:41:04.766Z,8.57
2018-06-12T09:43:32.820Z,8.40
2018-06-12T09:46:00.855Z,7.20
2018-06-12T09:48:28.878Z,9.50
2018-06-12T09:50:57.651Z,7.87
2018-06-12T09:53:25.726Z,8.23
2018-06-12T09:55:53.744Z,7.03
2018-06-12T09:58:21.803Z,6.13
2018-06-12T10:00:55.244Z,6.53
2018-06-12T10:03:23.266Z,6.07
2018-06-12T10:05:51.295Z,5.53
2018-06-12T10:08:19.335Z,5.40
2018-06-12T10:10:47.351Z,6.33
2018-06-12T10:13:15.389Z,5.47
2018-06-12T10:15:43.448Z,5.10
2018-06-12T10:18:11.483Z,4.80
2018-06-12T10:20:39.527Z,5.12
2018-06-12T10:23:07.575Z,5.30
2018-06-12T10:25:35.598Z,6.20
2018-06-12T10:28:03.625Z,7.08
2018-06-12T10:30:31.646Z,7.53
2018-06-12T10:32:59.662Z,7.00
2018-06-12T10:35:27.687Z,7.78
2018-06-12T10:37:55.763Z,7.58
2018-06-12T10:40:23.792Z,7.35
2018-06-12T10:42:51.814Z,8.65
2018-06-12T10:45:19.843Z,9.03
2018-06-12T10:50:15.235Z,8.50
2018-06-12T10:55:10.667Z,8.53
2018-06-12T10:57:38.725Z,13.38
2018-06-12T11:02:34.187Z,19.63
2018-06-12T11:05:02.202Z,18.73
2018-06-12T11:07:30.243Z,10.40
2018-06-12T11:09:58.327Z,6.37
2018-06-12T11:12:26.351Z,6.47
2018-06-12T11:14:54.381Z,7.63
2018-06-12T11:17:22.438Z,5.97
2018-06-12T11:19:50.473Z,6.27
2018-06-12T11:22:18.563Z,6.67
2018-06-12T11:27:14.025Z,12.43
2018-06-12T11:29:41.990Z,14.03
2018-06-12T11:32:09.810Z,17.50
2018-06-12T11:34:37.839Z,17.10
2018-06-12T11:37:05.870Z,14.33
2018-06-12T11:42:01.275Z,20.33
2018-06-12T11:44:29.306Z,22.10
2018-06-12T11:51:52.098Z,25.90
2018-06-12T11:54:20.119Z,25.47
2018-06-12T11:56:48.154Z,25.83
2018-06-12T11:59:15.957Z,27.67
2018-06-12T12:01:43.990Z,28.57
2018-06-12T12:04:12.030Z,31.53
2018-06-12T12:06:40.072Z,35.23
2018-06-12T12:11:36.801Z,37.50
2018-06-12T12:14:04.913Z,37.47
2018-06-12T12:16:33.142Z,38.80
2018-06-12T12:21:28.674Z,43.07
2018-06-12T12:23:56.703Z,44.07
2018-06-12T12:26:24.730Z,43.93
2018-06-12T12:28:52.750Z,44.47
2018-06-12T12:31:20.790Z,42.27
2018-06-12T12:43:38.364Z,41.07
2018-06-12T12:46:06.351Z,46.80
2018-06-12T12:48:34.375Z,44.43
2018-06-12T12:51:02.399Z,46.50
2018-06-12T12:53:30.438Z,50.70
2018-06-12T12:58:25.630Z,48.40
2018-06-12T13:00:53.662Z,50.27
2018-06-12T13:03:21.691Z,47.87
2018-06-12T13:05:49.769Z,45.10
2018-06-12T13:08:17.828Z,51.67
2018-06-12T13:10:45.791Z,53.40
2018-06-12T13:13:13.815Z,45.20
2018-06-12T13:15:41.846Z,48.90
2018-06-12T13:18:09.675Z,40.77
2018-06-12T13:20:37.716Z,40.23
2018-06-12T13:23:05.747Z,42.43
2018-06-12T13:25:33.775Z,42.47
2018-06-12T13:28:01.591Z,36.47
2018-06-12T13:30:29.415Z,37.20
2018-06-12T13:32:57.230Z,37.23
2018-06-12T13:35:25.121Z,37.40
2018-06-12T13:37:52.939Z,31.07
2018-06-12T13:40:20.766Z,31.53
2018-06-12T13:42:48.582Z,34.47
2018-06-12T13:45:16.399Z,32.90
2018-06-12T13:47:44.227Z,32.23
2018-06-12T13:50:12.054Z,31.90
2018-06-12T13:52:39.984Z,25.13
2018-06-12T13:55:07.804Z,21.07
2018-06-12T13:57:35.622Z,25.87
2018-06-12T14:00:04.054Z,25.37
2018-06-12T14:02:31.869Z,29.07
2018-06-12T14:04:59.686Z,31.27
2018-06-12T14:07:27.517Z,29.77
2018-06-12T14:09:55.354Z,31.00
2018-06-12T14:12:23.165Z,31.73
2018-06-12T14:14:50.990Z,34.33
2018-06-12T14:17:18.824Z,36.57
2018-06-12T14:19:46.646Z,34.20
2018-06-12T14:22:14.454Z,37.73
2018-06-12T14:24:42.338Z,38.43
2018-06-12T14:27:10.154Z,36.33
2018-06-12T14:29:37.977Z,39.80
2018-06-12T14:32:05.814Z,41.40
2018-06-12T14:34:33.622Z,40.53
2018-06-12T14:37:01.446Z,37.50
2018-06-12T14:39:29.262Z,37.70
2018-06-12T14:41:57.289Z,39.33
2018-06-12T14:44:25.326Z,39.20
2018-06-12T14:46:53.350Z,39.23
2018-06-12T14:49:21.387Z,39.43
2018-06-12T14:51:49.443Z,41.67
2018-06-12T14:54:17.490Z,31.93
2018-06-12T14:56:45.508Z,33.27
2018-06-12T14:59:13.556Z,34.30
2018-06-12T15:01:41.547Z,32.13
2018-06-12T15:04:09.593Z,30.07
2018-06-12T15:06:37.639Z,37.17
2018-06-12T15:09:07.302Z,34.43
2018-06-12T15:11:35.462Z,32.93
2018-06-12T15:14:03.535Z,35.33
2018-06-12T15:16:31.366Z,35.77
2018-06-12T15:18:59.420Z,26.03
2018-06-12T15:21:27.437Z,26.47
2018-06-12T15:23:55.474Z,28.70
2018-06-12T15:26:23.493Z,24.17
2018-06-12T15:28:51.523Z,23.40
2018-06-12T15:31:19.555Z,19.43
2018-06-12T15:33:47.587Z,22.93
2018-06-12T15:36:15.614Z,27.40
2018-06-12T15:38:43.644Z,19.97
2018-06-12T15:41:11.664Z,22.37
2018-06-12T15:43:39.691Z,18.83
2018-06-12T15:46:07.493Z,17.10
2018-06-12T15:48:35.538Z,18.93
2018-06-12T15:51:03.574Z,17.37
2018-06-12T15:53:31.588Z,16.97
2018-06-12T15:55:59.639Z,16.20
2018-06-12T15:58:27.671Z,15.70
2018-06-12T16:00:55.691Z,13.63
2018-06-12T16:03:23.727Z,13.40
2018-06-12T16:05:51.746Z,12.90
2018-06-12T16:08:19.776Z,12.20
2018-06-12T16:10:47.811Z,12.70
2018-06-12T16:13:15.835Z,14.60
2018-06-12T16:15:43.855Z,14.53
2018-06-12T16:18:11.899Z,13.30
2018-06-12T16:20:39.935Z,13.33
2018-06-12T16:23:07.958Z,12.77
2018-06-12T16:25:35.994Z,13.90
2018-06-12T16:28:04.019Z,13.07
2018-06-12T16:30:32.038Z,12.20
2018-06-12T16:35:27.438Z,11.60
2018-06-12T16:37:55.467Z,11.63
2018-06-12T16:40:23.488Z,12.73
2018-06-12T16:42:51.514Z,12.03
2018-06-12T16:45:19.550Z,12.07
2018-06-12T16:47:47.578Z,12.30
2018-06-12T16:50:15.602Z,12.43
2018-06-12T16:52:43.620Z,11.87
2018-06-12T16:55:11.450Z,10.97
2018-06-12T16:57:39.479Z,11.33
2018-06-12T17:00:07.502Z,12.07
2018-06-12T17:02:35.526Z,11.00
2018-06-12T17:05:03.550Z,13.10
2018-06-12T17:07:31.577Z,12.77
2018-06-12T17:09:59.598Z,12.37
2018-06-12T17:12:27.634Z,12.33
2018-06-12T17:14:55.663Z,12.13
2018-06-12T17:17:23.695Z,14.73
2018-06-12T17:19:51.723Z,12.60
2018-06-12T17:22:19.755Z,13.03
2018-06-12T17:24:47.779Z,11.20
2018-06-12T17:27:15.806Z,12.63
2018-06-12T17:29:43.830Z,12.03
2018-06-12T17:32:11.854Z,13.00
2018-06-12T17:34:39.915Z,10.20
2018-06-12T17:37:07.952Z,8.40
2018-06-12T17:42:03.338Z,5.17
2018-06-12T17:44:31.389Z,4.00
2018-06-12T17:49:26.812Z,7.57
2018-06-12T17:51:54.835Z,8.40
2018-06-12T17:54:22.854Z,6.97
2018-06-12T17:56:50.898Z,6.20
2018-06-12T17:59:18.955Z,8.67
2018-06-12T18:01:46.983Z,7.60
2018-06-12T18:04:15.017Z,25.33
2018-06-12T18:06:43.047Z,53.97
2018-06-12T18:09:10.958Z,51.67
2018-06-12T18:11:38.990Z,48.27
2018-06-12T18:14:07.018Z,55.13
2018-06-12T18:16:35.055Z,57.63
2018-06-12T18:19:03.075Z,64.20
2018-06-12T18:21:31.110Z,68.93
2018-06-12T18:23:59.145Z,68.03
2018-06-12T18:26:27.182Z,66.83
2018-06-12T18:28:55.210Z,59.87
2018-06-12T18:31:23.268Z,55.03
2018-06-12T18:33:51.294Z,56.50
2018-06-12T18:36:19.740Z,57.87
2018-06-12T18:38:47.733Z,56.13
2018-06-12T18:41:15.742Z,57.63
2018-06-12T18:43:43.810Z,56.23
2018-06-12T18:46:11.830Z,58.33
2018-06-12T18:48:39.875Z,56.40
2018-06-12T18:51:07.919Z,59.20
2018-06-12T18:53:35.965Z,54.47
2018-06-12T18:56:03.994Z,57.80
2018-06-12T18:58:32.039Z,53.60
2018-06-12T19:01:00.097Z,54.20
2018-06-12T19:03:28.129Z,54.57
2018-06-12T19:05:56.171Z,56.70
2018-06-12T19:08:24.194Z,60.93
2018-06-12T19:10:52.243Z,63.20
2018-06-12T19:13:20.311Z,61.10
2018-06-12T19:15:48.359Z,56.55
2018-06-12T19:18:16.410Z,56.80
2018-06-12T19:20:44.450Z,59.47
2018-06-12T19:23:12.487Z,57.03
2018-06-12T19:25:40.307Z,52.27
2018-06-12T19:28:08.359Z,54.47
2018-06-12T19:30:36.399Z,54.13
2018-06-12T19:33:04.438Z,53.70
2018-06-12T19:35:32.480Z,57.40
2018-06-12T19:38:00.518Z,59.07
2018-06-12T19:40:28.340Z,50.77
2018-06-12T19:42:56.375Z,56.10
2018-06-12T19:45:24.407Z,60.20
2018-06-12T19:50:19.826Z,60.27
2018-06-12T20:05:04.535Z,64.20
2018-06-12T20:14:54.654Z,54.50
2018-06-12T20:37:01.812Z,67.40
2018-06-12T20:39:29.859Z,57.10
2018-06-12T20:56:42.018Z,50.53
2018-06-12T21:01:37.467Z,47.73
2018-06-12T21:06:32.903Z,46.93
2018-06-12T21:09:00.942Z,43.83
2018-06-12T21:11:28.995Z,44.13
2018-06-12T21:13:57.051Z,43.53
2018-06-12T21:33:36.806Z,47.60
2018-06-12T21:36:04.919Z,41.70
2018-06-12T21:38:32.950Z,37.55
2018-06-12T21:43:28.574Z,29.90
2018-06-12T21:45:56.595Z,30.70
2018-06-12T22:03:08.907Z,32.23
2018-06-12T22:20:22.282Z,28.10
2018-06-12T22:37:34.344Z,24.53
2018-06-12T22:40:02.354Z,26.23
2018-06-12T22:42:30.390Z,25.63
2018-06-12T22:44:58.423Z,25.10
2018-06-12T23:04:38.158Z,23.40
2018-06-12T23:07:06.171Z,23.20
2018-06-12T23:12:01.662Z,20.30
2018-06-12T23:14:29.748Z,20.53
2018-06-12T23:16:57.810Z,21.40
2018-06-12T23:19:25.795Z,18.57
2018-06-12T23:22:00.377Z,20.07
2018-06-12T23:24:28.411Z,19.97
2018-06-12T23:26:56.447Z,18.97
2018-06-12T23:29:24.481Z,18.13
2018-06-12T23:49:04.110Z,16.70
2018-06-12T23:56:26.887Z,16.50
